Time;durP1;ratioP1;P1;durP2;ratioP2;P2;SDS_P1;SDS_P2;PMS_P1;PMS_P2;Temp;Humidity;BMP_temperature;BMP_pressure;BME280_temperature;BME280_humidity;BME280_pressure;Samples;Min_cycle;Max_cycle;Signal;HPM_P1;HPM_P2
2021/06/22 00:00:01;;;;;;;54.67;10.93;;;;;;;22.37;81.15;100313.89;1647039;85;21612;-71
2021/06/22 00:02:27;;;;;;;52.63;11.53;;;;;;;22.38;81.24;100305.19;1652700;85;21069;-70
2021/06/22 00:04:54;;;;;;;50.97;10.40;;;;;;;22.36;81.32;100312.32;1658446;85;21591;-69
2021/06/22 00:07:21;;;;;;;49.70;9.83;;;;;;;22.35;81.34;100312.68;1670478;85;21128;-70
2021/06/22 00:09:49;;;;;;;43.53;11.33;;;;;;;22.33;81.36;100311.64;1650670;85;21023;-70
2021/06/22 00:12:17;;;;;;;50.07;9.87;;;;;;;22.33;81.37;100313.58;1647997;85;21122;-70
2021/06/22 00:14:44;;;;;;;43.87;11.37;;;;;;;22.31;81.36;100323.45;1655311;85;21018;-70
2021/06/22 00:17:13;;;;;;;40.87;10.93;;;;;;;22.30;81.47;100317.77;1673760;85;21097;-69
2021/06/22 00:19:40;;;;;;;46.60;10.47;;;;;;;22.29;81.57;100318.13;1645765;85;21439;-70
2021/06/22 00:22:07;;;;;;;43.63;10.17;;;;;;;22.23;81.75;100322.42;1650304;85;21104;-70
2021/06/22 00:24:33;;;;;;;51.27;11.67;;;;;;;22.07;82.31;100317.41;1642283;84;21111;-69
2021/06/22 00:27:00;;;;;;;51.30;11.63;;;;;;;21.93;83.08;100319.11;1655350;85;21496;-70
2021/06/22 00:29:27;;;;;;;59.70;12.23;;;;;;;21.82;83.63;100319.34;1656602;85;21158;-69
2021/06/22 00:31:55;;;;;;;49.50;11.93;;;;;;;21.76;84.03;100326.12;1651161;85;21167;-69
2021/06/22 00:34:22;;;;;;;55.10;10.97;;;;;;;21.75;84.27;100318.53;1653298;85;21543;-70
2021/06/22 00:36:49;;;;;;;53.17;12.23;;;;;;;21.77;84.45;100318.97;1664214;85;21078;-70
2021/06/22 00:39:15;;;;;;;52.60;12.63;;;;;;;21.82;84.61;100321.27;1655169;85;21533;-69
2021/06/22 00:41:43;;;;;;;48.53;12.13;;;;;;;21.84;84.72;100325.21;1647560;85;21063;-68
2021/06/22 00:44:11;;;;;;;43.37;10.97;;;;;;;21.86;84.77;100325.67;1655096;85;21563;-69
2021/06/22 00:46:38;;;;;;;48.43;10.73;;;;;;;21.87;84.81;100323.75;1656684;85;20945;-70
2021/06/22 00:49:05;;;;;;;57.43;10.67;;;;;;;21.88;84.90;100322.06;1647330;85;21143;-69
2021/06/22 00:51:34;;;;;;;62.57;11.80;;;;;;;21.88;84.95;100313.09;1650136;85;21115;-70
2021/06/22 00:54:02;;;;;;;60.20;12.13;;;;;;;21.86;84.87;100315.37;1648722;85;21039;-69
2021/06/22 00:56:32;;;;;;;46.97;11.47;;;;;;;21.85;84.75;100310.50;1650217;85;21150;-70
2021/06/22 00:58:59;;;;;;;54.63;11.00;;;;;;;21.82;84.76;100307.67;1647682;85;21130;-69
2021/06/22 01:01:25;;;;;;;47.40;10.90;;;;;;;21.78;84.64;100301.55;1647751;85;21104;-69
2021/06/22 01:03:52;;;;;;;45.80;10.73;;;;;;;21.73;84.46;100299.61;1650696;85;21135;-69
2021/06/22 01:06:22;;;;;;;54.57;12.17;;;;;;;21.65;84.35;100301.31;1644958;85;21451;-70
2021/06/22 01:08:50;;;;;;;53.50;12.43;;;;;;;21.60;84.30;100292.00;1659129;85;21105;-71
2021/06/22 01:11:17;;;;;;;57.07;11.23;;;;;;;21.53;84.16;100287.13;1645451;85;21063;-70
2021/06/22 01:13:46;;;;;;;58.90;11.63;;;;;;;21.50;84.10;100285.64;1648130;85;21107;-70
2021/06/22 01:16:25;;;;;;;54.87;11.30;;;;;;;21.48;84.13;100281.89;1645609;85;21139;-70
2021/06/22 01:19:00;;;;;;;61.17;12.33;;;;;;;21.47;84.07;100282.23;1650606;85;21055;-69
2021/06/22 01:21:31;;;;;;;53.93;11.83;;;;;;;21.45;83.92;100273.63;1649158;85;21164;-70
2021/06/22 01:24:09;;;;;;;49.50;11.27;;;;;;;21.43;83.96;100269.11;1646764;85;21672;-70
2021/06/22 01:26:39;;;;;;;56.53;12.03;;;;;;;21.42;84.04;100274.30;1663276;85;21137;-70
2021/06/22 01:29:08;;;;;;;63.45;12.98;;;;;;;21.36;83.75;100279.17;1639438;86;21595;-69
2021/06/22 01:31:36;;;;;;;70.80;12.83;;;;;;;21.28;83.59;100280.80;1624127;85;21040;-70
2021/06/22 01:34:03;;;;;;;68.63;11.70;;;;;;;21.22;83.30;100282.16;1653233;85;21145;-69
2021/06/22 01:36:32;;;;;;;69.07;12.83;;;;;;;21.18;83.10;100285.30;1655822;85;21088;-70
2021/06/22 01:38:59;;;;;;;63.33;12.13;;;;;;;21.16;83.01;100277.25;1670874;85;21545;-69
2021/06/22 01:41:28;;;;;;;54.57;12.93;;;;;;;21.15;83.13;100275.67;1629943;85;21158;-70
2021/06/22 01:43:58;;;;;;;66.77;11.70;;;;;;;21.15;83.24;100274.31;1652077;85;21021;-69
2021/06/22 01:46:25;;;;;;;62.60;12.10;;;;;;;21.14;83.55;100270.02;1649237;85;21133;-70
2021/06/22 01:48:52;;;;;;;66.43;12.90;;;;;;;21.13;83.75;100269.23;1655885;85;21067;-69
2021/06/22 01:51:19;;;;;;;61.33;11.63;;;;;;;21.15;83.76;100262.88;1621655;86;21051;-70
2021/06/22 01:53:54;;;;;;;63.67;12.03;;;;;;;21.12;83.61;100266.27;1652979;85;21062;-70
2021/06/22 01:56:21;;;;;;;61.33;10.90;;;;;;;21.07;83.38;100274.06;1628651;85;21058;-70
2021/06/22 01:58:48;;;;;;;67.77;11.53;;;;;;;20.99;83.26;100274.95;1648898;85;21152;-69
2021/06/22 02:01:31;;;;;;;66.67;12.23;;;;;;;20.95;83.16;100280.02;1648576;85;21028;-70
2021/06/22 02:04:03;;;;;;;57.73;11.30;;;;;;;20.95;83.01;100280.02;1651922;85;21103;-71
2021/06/22 02:06:30;;;;;;;68.17;11.53;;;;;;;20.94;82.71;100281.15;1659931;85;21472;-70
2021/06/22 02:08:59;;;;;;;69.67;11.83;;;;;;;20.94;82.54;100275.16;1628221;85;21095;-70
2021/06/22 02:11:27;;;;;;;70.93;12.90;;;;;;;20.95;82.34;100281.37;1645397;85;21122;-70
2021/06/22 02:13:55;;;;;;;65.40;13.10;;;;;;;20.94;82.13;100279.22;1651533;85;21119;-70
2021/06/22 02:16:24;;;;;;;61.37;11.27;;;;;;;20.92;82.15;100280.67;1649016;85;21047;-71
2021/06/22 02:18:52;;;;;;;61.53;10.80;;;;;;;20.91;82.06;100279.09;1648474;85;21565;-69
2021/06/22 02:21:21;;;;;;;65.33;12.20;;;;;;;20.88;81.97;100279.19;1644744;85;21134;-70
2021/06/22 02:23:49;;;;;;;58.53;11.53;;;;;;;20.86;81.90;100276.01;1649838;85;21160;-70
2021/06/22 02:26:18;;;;;;;59.47;10.90;;;;;;;20.89;81.91;100270.48;1647304;87;21107;-69
2021/06/22 02:28:45;;;;;;;56.93;11.50;;;;;;;20.93;82.00;100270.07;1659270;85;21060;-69
2021/06/22 02:31:12;;;;;;;67.53;12.37;;;;;;;20.95;82.07;100262.36;1643714;85;21515;-70
2021/06/22 02:33:41;;;;;;;67.77;11.80;;;;;;;20.97;82.01;100258.20;1650293;85;21101;-70
2021/06/22 02:36:08;;;;;;;60.93;12.27;;;;;;;20.98;81.99;100255.70;1651067;85;21131;-69
2021/06/22 02:38:37;;;;;;;67.60;11.27;;;;;;;20.99;81.93;100260.56;1652971;85;21102;-70
2021/06/22 02:41:05;;;;;;;61.60;11.90;;;;;;;20.99;81.92;100260.56;1650493;85;21063;-70
2021/06/22 02:43:34;;;;;;;66.73;11.77;;;;;;;21.01;81.78;100268.61;1647114;85;21503;-70
2021/06/22 02:46:01;;;;;;;54.83;10.63;;;;;;;21.05;81.62;100271.45;1649674;85;21055;-69
2021/06/22 02:48:27;;;;;;;62.53;12.23;;;;;;;21.10;81.49;100265.83;1670678;85;21876;-69
2021/06/22 02:50:54;;;;;;;55.77;11.37;;;;;;;21.15;81.35;100262.88;1658295;85;21084;-69
2021/06/22 02:53:23;;;;;;;53.53;11.23;;;;;;;21.20;81.00;100254.53;1653504;85;21053;-70
2021/06/22 02:55:50;;;;;;;55.97;10.60;;;;;;;21.23;80.49;100258.51;1652804;85;21072;-70
2021/06/22 02:58:17;;;;;;;55.37;10.77;;;;;;;21.25;79.96;100252.16;1645993;85;21285;-70
2021/06/22 03:00:46;;;;;;;60.03;11.30;;;;;;;21.28;79.37;100256.34;1643912;85;21163;-70
2021/06/22 03:03:13;;;;;;;53.13;10.10;;;;;;;21.30;78.97;100260.11;1651613;85;21068;-71
2021/06/22 03:05:42;;;;;;;49.30;11.10;;;;;;;21.31;78.76;100257.04;1648102;85;21076;-70
2021/06/22 03:08:11;;;;;;;48.77;9.67;;;;;;;21.35;78.54;100255.04;1648316;85;21127;-69
2021/06/22 03:10:39;;;;;;;49.80;11.07;;;;;;;21.40;78.27;100257.55;1661640;85;21152;-70
2021/06/22 03:13:07;;;;;;;54.87;9.73;;;;;;;21.44;77.90;100258.45;1640776;85;21173;-69
2021/06/22 03:15:37;;;;;;;51.77;10.87;;;;;;;21.47;77.53;100273.52;1664151;84;21031;-70
2021/06/22 03:18:04;;;;;;;53.93;11.10;;;;;;;21.48;77.51;100268.88;1654785;85;21150;-70
2021/06/22 03:20:36;;;;;;;;;;;;;;;21.42;77.30;100269.67;1659954;85;21079;-70
2021/06/22 03:23:04;;;;;;;51.50;10.80;;;;;;;21.41;77.29;100274.86;1629843;86;20178;-69
2021/06/22 03:25:32;;;;;;;61.77;11.17;;;;;;;21.45;77.20;100280.41;1633209;86;21211;-70
2021/06/22 03:28:01;;;;;;;63.73;11.37;;;;;;;21.46;77.19;100277.37;1635565;85;21089;-70
2021/06/22 03:30:47;;;;;;;68.63;11.73;;;;;;;21.48;77.33;100279.17;1632438;86;21075;-69
2021/06/22 03:33:14;;;;;;;54.30;11.10;;;;;;;21.51;77.48;100284.50;1604843;88;21177;-70
2021/06/22 03:35:42;;;;;;;65.87;11.83;;;;;;;21.52;77.39;100289.62;1648656;85;21075;-69
2021/06/22 03:38:09;;;;;;;56.93;10.57;;;;;;;21.51;77.12;100294.80;1641295;87;21525;-70
2021/06/22 03:40:36;;;;;;;57.03;10.87;;;;;;;21.48;76.96;100291.40;1645705;85;21010;-70
2021/06/22 03:43:05;;;;;;;61.53;11.97;;;;;;;21.51;76.93;100292.66;1645726;85;21096;-69
2021/06/22 03:45:32;;;;;;;46.47;10.17;;;;;;;21.57;76.77;100298.68;1648913;85;21189;-70
2021/06/22 03:47:59;;;;;;;44.90;9.97;;;;;;;21.65;76.48;100302.67;1646580;85;21094;-70
2021/06/22 03:50:28;;;;;;;48.73;9.63;;;;;;;21.72;76.00;100307.55;1650179;85;21800;-70
2021/06/22 03:52:54;;;;;;;44.13;8.50;;;;;;;21.79;75.73;100310.50;1650000;85;21051;-70
2021/06/22 03:55:26;;;;;;;47.23;8.70;;;;;;;21.87;75.24;100306.08;1647305;85;21128;-70
2021/06/22 03:58:03;;;;;;;37.00;8.13;;;;;;;21.98;74.63;100301.22;1629957;85;21107;-71
2021/06/22 04:00:32;;;;;;;43.30;8.40;;;;;;;22.09;73.63;100305.63;1645966;85;21115;-70
2021/06/22 04:03:00;;;;;;;35.00;8.57;;;;;;;22.19;73.01;100293.53;1655635;85;21153;-69
2021/06/22 04:05:30;;;;;;;36.10;6.60;;;;;;;22.30;71.70;100293.85;1656653;85;20984;-70
2021/06/22 04:08:01;;;;;;;35.13;6.83;;;;;;;22.40;71.13;100292.02;1642894;85;21068;-69
2021/06/22 04:10:30;;;;;;;26.30;5.70;;;;;;;22.47;69.98;100285.42;1647917;85;21132;-69
2021/06/22 04:12:58;;;;;;;38.70;6.63;;;;;;;22.54;69.89;100279.39;1647201;85;21629;-69
2021/06/22 04:15:25;;;;;;;32.13;6.43;;;;;;;22.63;69.36;100281.42;1657311;85;21277;-71
2021/06/22 04:17:52;;;;;;;27.43;6.50;;;;;;;22.77;69.96;100275.58;1659467;85;21515;-71
2021/06/22 04:20:20;;;;;;;27.00;7.07;;;;;;;22.89;69.05;100270.09;1624286;85;21558;-71
2021/06/22 04:22:48;;;;;;;20.37;5.00;;;;;;;23.03;69.04;100273.80;1668151;85;21032;-71
2021/06/22 04:25:17;;;;;;;31.10;6.30;;;;;;;23.12;68.48;100278.53;1654462;85;21035;-71
2021/06/22 04:27:43;;;;;;;28.00;5.60;;;;;;;23.16;67.53;100278.88;1652287;85;21074;-70
2021/06/22 04:30:12;;;;;;;18.77;5.17;;;;;;;23.23;67.12;100285.63;1646919;85;21098;-70
2021/06/22 04:32:39;;;;;;;26.70;5.80;;;;;;;23.29;66.47;100273.34;1646488;85;21011;-70
2021/06/22 04:35:08;;;;;;;27.10;6.00;;;;;;;23.35;65.62;100270.58;1660038;85;21116;-70
2021/06/22 04:37:35;;;;;;;21.27;5.27;;;;;;;23.46;65.14;100275.75;1656615;85;21559;-70
2021/06/22 04:40:04;;;;;;;20.03;5.03;;;;;;;23.56;64.73;100268.95;1647839;85;21203;-70
2021/06/22 04:42:31;;;;;;;24.77;5.27;;;;;;;23.66;64.27;100271.18;1645263;85;21495;-70
2021/06/22 04:44:58;;;;;;;23.13;4.97;;;;;;;23.75;62.57;100267.71;1645640;85;21115;-70
2021/06/22 04:47:24;;;;;;;21.90;4.70;;;;;;;23.83;62.09;100264.02;1648010;85;21124;-70
2021/06/22 04:49:51;;;;;;;23.37;5.67;;;;;;;23.87;61.26;100262.16;1640404;85;21541;-70
2021/06/22 04:52:18;;;;;;;20.33;4.93;;;;;;;23.92;61.22;100255.64;1650311;85;21105;-71
2021/06/22 04:54:44;;;;;;;19.47;4.80;;;;;;;23.99;61.20;100255.83;1646747;85;21090;-71
2021/06/22 04:57:13;;;;;;;17.33;4.53;;;;;;;24.09;61.07;100258.58;1648751;85;21566;-71
2021/06/22 04:59:41;;;;;;;18.67;4.40;;;;;;;24.18;60.18;100259.73;1653657;85;21147;-70
2021/06/22 05:02:08;;;;;;;21.73;4.83;;;;;;;24.27;59.07;100258.39;1645354;85;21569;-71
2021/06/22 05:04:35;;;;;;;19.50;4.60;;;;;;;24.31;58.92;100251.64;1653552;85;21208;-71
2021/06/22 05:07:02;;;;;;;15.00;4.37;;;;;;;24.42;59.09;100254.06;1642569;85;21047;-71
2021/06/22 05:09:30;;;;;;;12.77;4.17;;;;;;;24.52;57.97;100260.91;1654820;85;21075;-70
2021/06/22 05:11:56;;;;;;;16.33;3.93;;;;;;;24.59;57.85;100265.72;1646402;85;21107;-70
2021/06/22 05:14:24;;;;;;;15.47;4.27;;;;;;;24.66;57.12;100261.77;1652650;85;21016;-70
2021/06/22 05:16:51;;;;;;;12.67;4.03;;;;;;;24.72;57.33;100275.35;1655358;85;22181;-69
2021/06/22 05:19:18;;;;;;;14.03;3.73;;;;;;;24.82;57.27;100276.14;1633308;86;21112;-70
2021/06/22 05:21:45;;;;;;;11.47;3.43;;;;;;;24.93;57.52;100279.07;1644896;85;21055;-70
2021/06/22 05:24:12;;;;;;;10.23;3.23;;;;;;;25.02;55.76;100280.43;1653130;85;21574;-70
2021/06/22 05:26:40;;;;;;;12.47;3.37;;;;;;;25.16;56.18;100288.72;1642575;85;21086;-70
2021/06/22 05:29:10;;;;;;;14.57;3.70;;;;;;;25.24;56.57;100287.70;1652128;85;21189;-73
2021/06/22 05:31:36;;;;;;;11.20;3.17;;;;;;;25.34;56.63;100289.84;1616615;87;21115;-72
2021/06/22 05:34:03;;;;;;;11.57;3.23;;;;;;;25.41;56.44;100291.33;1637036;86;21072;-71
2021/06/22 05:36:29;;;;;;;11.30;3.20;;;;;;;25.48;55.06;100290.08;1635511;86;21038;-71
2021/06/22 05:38:57;;;;;;;12.07;2.97;;;;;;;25.57;55.63;100295.88;1637659;86;21608;-71
2021/06/22 05:41:23;;;;;;;8.97;2.80;;;;;;;25.65;55.98;100292.12;1648788;85;21179;-70
2021/06/22 05:43:50;;;;;;;18.03;3.60;;;;;;;25.78;55.58;100285.88;1655852;85;21076;-71
2021/06/22 05:46:17;;;;;;;20.63;4.40;;;;;;;25.81;53.61;100283.23;1658042;85;21109;-70
2021/06/22 05:48:44;;;;;;;23.17;5.23;;;;;;;25.84;52.72;100264.72;1653705;85;21061;-70
2021/06/22 05:51:11;;;;;;;14.93;3.50;;;;;;;25.85;51.53;100266.28;1641759;85;21580;-71
2021/06/22 05:53:39;;;;;;;11.90;2.80;;;;;;;25.85;51.96;100271.76;1644339;85;21164;-72
2021/06/22 05:56:06;;;;;;;10.87;3.40;;;;;;;25.87;51.71;100274.14;1647671;84;21174;-72
2021/06/22 05:58:33;;;;;;;10.37;2.77;;;;;;;25.99;51.96;100273.12;1613490;85;21411;-72
2021/06/22 06:01:00;;;;;;;9.63;2.80;;;;;;;26.09;51.04;100271.13;1638523;85;21157;-70
2021/06/22 06:03:27;;;;;;;11.37;2.77;;;;;;;26.15;49.46;100271.02;1641176;85;21755;-70
2021/06/22 06:05:53;;;;;;;9.63;2.43;;;;;;;26.19;50.71;100272.67;1648096;85;21159;-72
2021/06/22 06:08:21;;;;;;;11.23;3.00;;;;;;;26.29;49.83;100280.83;1647099;85;21084;-71
2021/06/22 06:10:47;;;;;;;9.87;2.70;;;;;;;26.35;48.96;100277.95;1652115;85;21110;-70
2021/06/22 06:13:14;;;;;;;19.40;4.63;;;;;;;26.42;49.79;100282.17;1646379;85;21225;-71
2021/06/22 06:15:41;;;;;;;20.57;4.77;;;;;;;26.52;49.98;100270.38;1653927;85;21161;-70
2021/06/22 06:18:09;;;;;;;13.60;3.37;;;;;;;26.62;50.51;100256.02;1646103;85;21554;-71
2021/06/22 06:20:36;;;;;;;21.47;5.10;;;;;;;26.65;48.90;100237.47;1648851;85;21492;-70
2021/06/22 06:23:03;;;;;;;24.87;4.10;;;;;;;26.68;48.48;100240.83;1646060;85;21060;-70
2021/06/22 06:25:30;;;;;;;14.17;2.97;;;;;;;26.72;47.69;100232.09;1649067;85;21490;-71
2021/06/22 06:28:04;;;;;;;17.60;3.70;;;;;;;26.75;48.73;100227.23;1649169;85;21091;-70
2021/06/22 06:30:29;;;;;;;14.33;3.43;;;;;;;26.83;48.69;100233.57;1648818;85;22026;-71
2021/06/22 06:32:55;;;;;;;12.40;3.00;;;;;;;26.88;47.69;100229.92;1654031;85;21063;-70
2021/06/22 06:35:22;;;;;;;14.30;3.47;;;;;;;26.84;47.46;100234.55;1644841;85;21642;-71
2021/06/22 06:37:51;;;;;;;26.40;4.83;;;;;;;26.82;47.66;100247.08;1645175;85;21139;-70
2021/06/22 06:40:17;;;;;;;42.27;6.87;;;;;;;26.88;48.46;100253.22;1646820;85;21146;-71
2021/06/22 06:42:44;;;;;;;36.50;5.80;;;;;;;27.00;48.85;100274.66;1645720;85;21135;-70
2021/06/22 06:45:12;;;;;;;13.80;3.37;;;;;;;27.15;49.10;100280.55;1646612;85;21024;-70
2021/06/22 06:47:39;;;;;;;11.70;2.77;;;;;;;27.25;48.39;100290.83;1646657;85;21580;-73
2021/06/22 06:50:08;;;;;;;20.70;4.17;;;;;;;27.36;48.75;100301.30;1647055;85;21142;-71
2021/06/22 06:52:34;;;;;;;23.90;4.87;;;;;;;27.43;48.81;100284.13;1660488;85;21614;-72
2021/06/22 06:55:01;;;;;;;11.70;2.83;;;;;;;27.52;47.93;100290.09;1660374;85;21133;-71
2021/06/22 06:57:28;;;;;;;13.00;3.50;;;;;;;27.59;48.31;100288.78;1646960;85;21052;-70
2021/06/22 06:59:55;;;;;;;14.30;3.33;;;;;;;27.62;47.38;100279.59;1648500;85;21276;-70
2021/06/22 07:02:22;;;;;;;11.37;2.90;;;;;;;27.68;47.70;100284.95;1646560;85;21610;-72
2021/06/22 07:04:48;;;;;;;14.63;3.13;;;;;;;27.69;46.44;100289.25;1645543;85;21063;-71
2021/06/22 07:07:15;;;;;;;13.40;3.47;;;;;;;27.64;46.71;100306.87;1649875;85;21192;-71
2021/06/22 07:09:42;;;;;;;26.73;5.13;;;;;;;27.56;46.82;100288.75;1647780;85;21162;-71
2021/06/22 07:12:10;;;;;;;14.57;3.80;;;;;;;27.57;46.88;100280.16;1650023;85;21072;-71
2021/06/22 07:14:36;;;;;;;22.10;4.70;;;;;;;27.59;46.14;100285.25;1648425;85;21082;-70
2021/06/22 07:17:04;;;;;;;15.23;3.23;;;;;;;27.62;47.10;100294.10;1653415;85;21091;-72
2021/06/22 07:19:31;;;;;;;17.60;4.63;;;;;;;27.74;47.00;100279.28;1647983;85;21097;-71
2021/06/22 07:21:58;;;;;;;55.33;9.77;;;;;;;27.93;47.42;100279.66;1646394;85;21719;-71
2021/06/22 07:24:25;;;;;;;21.20;4.50;;;;;;;28.16;45.85;100287.06;1632232;85;21087;-71
2021/06/22 07:26:52;;;;;;;19.37;4.30;;;;;;;28.34;46.11;100285.03;1649669;85;21067;-72
2021/06/22 07:29:19;;;;;;;13.13;3.77;;;;;;;28.46;44.62;100286.08;1645884;85;21213;-71
2021/06/22 07:31:45;;;;;;;14.07;3.70;;;;;;;28.52;45.46;100288.66;1649739;85;21151;-72
2021/06/22 07:34:12;;;;;;;17.27;3.90;;;;;;;28.61;45.02;100286.95;1650515;85;21094;-71
2021/06/22 07:36:39;;;;;;;19.33;4.30;;;;;;;28.70;44.92;100286.79;1637494;85;21228;-75
2021/06/22 07:39:05;;;;;;;31.33;5.07;;;;;;;28.84;46.02;100272.30;1649010;85;21094;-71
2021/06/22 07:41:34;;;;;;;23.03;5.70;;;;;;;29.03;44.85;100275.34;1649714;85;21002;-72
2021/06/22 07:44:01;;;;;;;27.77;5.70;;;;;;;29.14;41.97;100277.51;1608842;85;21983;-71
2021/06/22 07:46:31;;;;;;;22.73;4.77;;;;;;;29.16;42.69;100273.79;1663600;85;21021;-70
2021/06/22 07:48:58;;;;;;;25.00;4.63;;;;;;;29.20;42.94;100280.08;1648510;85;21096;-75
2021/06/22 07:51:25;;;;;;;21.57;4.17;;;;;;;29.24;41.61;100269.67;1652154;85;21601;-71
2021/06/22 07:53:51;;;;;;;25.95;4.67;;;;;;;29.29;42.25;100270.67;1653050;85;21092;-72
2021/06/22 07:56:18;;;;;;;27.87;4.60;;;;;;;29.33;41.89;100266.73;1661514;85;21141;-72
2021/06/22 07:58:45;;;;;;;24.70;4.90;;;;;;;29.31;40.97;100264.17;1666754;85;21754;-72
2021/06/22 08:01:12;;;;;;;25.50;5.45;;;;;;;29.33;40.83;100263.98;1625879;85;21512;-72
2021/06/22 08:03:39;;;;;;;35.75;6.50;;;;;;;29.34;41.18;100274.39;1648440;85;21087;-72
2021/06/22 08:06:06;;;;;;;30.05;5.55;;;;;;;29.30;40.54;100277.74;1647626;85;21589;-73
2021/06/22 08:08:33;;;;;;;25.93;4.77;;;;;;;29.26;41.87;100273.61;1646349;85;21493;-71
2021/06/22 08:11:00;;;;;;;31.55;6.00;;;;;;;29.25;41.54;100280.86;1648045;85;21115;-74
2021/06/22 08:13:26;;;;;;;28.03;5.47;;;;;;;29.12;42.07;100284.00;1649367;85;21045;-71
2021/06/22 08:15:56;;;;;;;33.35;6.83;;;;;;;29.08;43.22;100284.56;1646492;85;21082;-72
2021/06/22 08:18:22;;;;;;;36.70;7.60;;;;;;;29.07;41.48;100293.22;1648316;85;21068;-72
2021/06/22 08:20:53;;;;;;;51.53;8.80;;;;;;;29.03;40.22;100287.71;1647693;85;21603;-72
2021/06/22 08:23:18;;;;;;;47.47;7.87;;;;;;;29.07;42.10;100284.97;1650040;85;21135;-72
2021/06/22 08:25:45;;;;;;;34.92;7.25;;;;;;;29.15;41.41;100283.20;1651141;85;21012;-73
2021/06/22 08:28:11;;;;;;;30.82;5.67;;;;;;;29.27;42.18;100288.14;1650032;85;21593;-72
2021/06/22 08:30:38;;;;;;;35.43;6.75;;;;;;;29.35;40.87;100279.52;1633476;85;21137;-73
2021/06/22 08:33:06;;;;;;;48.83;9.23;;;;;;;29.33;41.68;100283.84;1628641;86;21132;-71
2021/06/22 08:35:36;;;;;;;39.15;8.25;;;;;;;29.29;40.98;100287.18;1605331;88;21669;-72
2021/06/22 08:38:09;;;;;;;52.70;9.40;;;;;;;29.36;41.38;100278.34;1651659;85;21091;-72
2021/06/22 08:40:39;;;;;;;34.33;7.42;;;;;;;29.49;40.83;100285.63;1643340;85;21054;-70
2021/06/22 08:43:10;;;;;;;49.97;7.63;;;;;;;29.65;42.13;100288.80;1652318;85;21072;-70
2021/06/22 08:45:36;;;;;;;43.70;7.62;;;;;;;29.74;40.13;100285.63;1658421;85;21378;-71
2021/06/22 08:48:06;;;;;;;39.90;7.03;;;;;;;29.80;40.14;100288.19;1658816;85;21115;-71
2021/06/22 08:50:33;;;;;;;46.25;7.90;;;;;;;29.94;40.35;100288.76;1642073;85;21633;-71
2021/06/22 08:53:00;;;;;;;67.55;10.58;;;;;;;30.03;39.16;100284.23;1649790;85;21087;-70
2021/06/22 08:55:30;;;;;;;37.05;8.25;;;;;;;30.01;39.21;100283.27;1650288;85;21111;-71
2021/06/22 08:58:04;;;;;;;50.85;9.65;;;;;;;29.95;39.07;100282.09;1646988;85;21546;-70
2021/06/22 09:00:36;;;;;;;42.85;7.97;;;;;;;29.98;39.75;100275.80;1662335;85;21052;-71
2021/06/22 09:03:24;;;;;;;45.67;9.63;;;;;;;30.10;40.87;100278.70;1652449;85;21440;-71
2021/06/22 09:05:59;;;;;;;50.30;10.68;;;;;;;30.22;39.87;100276.95;1661483;84;22319;-70
2021/06/22 09:08:33;;;;;;;;;;;;;;;30.30;38.05;100270.22;1676935;85;21084;-71
2021/06/22 09:11:09;;;;;;;61.28;11.50;;;;;;;30.39;37.33;100269.80;1650326;85;21124;-72
2021/06/22 09:13:36;;;;;;;57.48;10.50;;;;;;;30.47;38.56;100279.64;1646899;85;21465;-70
2021/06/22 09:16:04;;;;;;;54.08;11.05;;;;;;;30.52;37.90;100272.91;1647226;85;21083;-71
2021/06/22 09:18:43;;;;;;;62.35;9.90;;;;;;;30.57;39.38;100279.41;1644709;85;21514;-71
2021/06/22 09:21:25;;;;;;;53.42;10.75;;;;;;;30.69;39.60;100277.55;1644720;85;21102;-70
2021/06/22 09:23:54;;;;;;;62.05;10.93;;;;;;;30.83;37.60;100277.53;1647044;85;21067;-71
2021/06/22 09:26:24;;;;;;;65.40;11.05;;;;;;;30.94;38.28;100278.06;1649072;85;22132;-71
2021/06/22 09:28:55;;;;;;;62.30;11.10;;;;;;;31.06;36.10;100277.02;1646348;85;21091;-70
2021/06/22 09:31:23;;;;;;;64.70;11.97;;;;;;;31.10;36.65;100270.09;1643841;85;21098;-72
2021/06/22 09:33:53;;;;;;;73.35;12.15;;;;;;;31.08;35.85;100282.11;1649792;85;21117;-70
2021/06/22 09:36:31;;;;;;;73.42;12.30;;;;;;;31.08;34.75;100268.31;1647548;85;21253;-70
2021/06/22 09:39:07;;;;;;;54.10;11.60;;;;;;;31.04;35.60;100279.97;1644917;85;21155;-71
2021/06/22 09:41:36;;;;;;;60.15;10.80;;;;;;;31.02;36.94;100276.23;1643662;85;21669;-70
2021/06/22 09:44:11;;;;;;;55.15;10.95;;;;;;;31.12;36.90;100269.67;1655679;85;21127;-71
2021/06/22 09:46:49;;;;;;;51.95;10.03;;;;;;;31.19;35.60;100272.38;1637043;85;21108;-69
2021/06/22 09:49:30;;;;;;;53.23;10.70;;;;;;;31.23;34.86;100271.78;1661193;85;21563;-69
2021/06/22 09:52:03;;;;;;;65.35;11.33;;;;;;;31.26;35.25;100273.70;1628323;86;21107;-70
2021/06/22 09:54:31;;;;;;;52.13;10.20;;;;;;;31.34;34.84;100269.75;1627821;86;21181;-69
2021/06/22 09:57:15;;;;;;;70.12;11.05;;;;;;;31.42;34.61;100268.48;1623888;86;21092;-70
2021/06/22 09:59:57;;;;;;;48.40;10.32;;;;;;;31.45;33.34;100264.14;1646937;85;20993;-71
2021/06/22 10:02:26;;;;;;;52.27;10.70;;;;;;;31.46;34.58;100266.50;1637055;85;21290;-71
2021/06/22 10:04:58;;;;;;;68.67;11.15;;;;;;;31.47;34.85;100266.69;1651181;85;21134;-71
2021/06/22 10:07:27;;;;;;;53.98;9.93;;;;;;;31.52;34.90;100257.98;1646754;85;21043;-70
2021/06/22 10:09:59;;;;;;;61.23;11.40;;;;;;;31.57;34.41;100254.59;1656136;85;21073;-69
2021/06/22 10:12:28;;;;;;;57.90;10.00;;;;;;;31.61;33.16;100256.71;1649063;85;21145;-70
2021/06/22 10:14:59;;;;;;;51.95;10.00;;;;;;;31.62;33.10;100249.39;1650935;85;21135;-71
2021/06/22 10:17:27;;;;;;;64.27;11.25;;;;;;;31.62;33.35;100245.25;1643725;85;21162;-70
2021/06/22 10:19:56;;;;;;;67.00;12.65;;;;;;;31.64;32.94;100253.14;1650593;85;21087;-71
2021/06/22 10:22:26;;;;;;;55.78;10.45;;;;;;;31.63;32.62;100239.94;1651089;85;21150;-69
2021/06/22 10:24:57;;;;;;;69.77;11.38;;;;;;;31.69;33.28;100243.05;1653177;85;21123;-71
2021/06/22 10:27:25;;;;;;;60.20;11.83;;;;;;;31.71;33.77;100247.55;1635314;85;21116;-70
2021/06/22 10:29:54;;;;;;;56.88;10.08;;;;;;;31.72;33.38;100239.44;1648191;85;21061;-70
2021/06/22 10:32:23;;;;;;;60.15;11.93;;;;;;;31.78;33.58;100248.86;1647023;85;21012;-70
2021/06/22 10:34:55;;;;;;;57.43;10.30;;;;;;;31.82;33.38;100244.67;1651971;85;21658;-70
2021/06/22 10:37:44;;;;;;;57.33;10.93;;;;;;;31.91;33.74;100240.87;1649747;85;21205;-70
2021/06/22 10:40:24;;;;;;;59.75;10.45;;;;;;;32.00;32.83;100235.65;1656045;85;21736;-70
2021/06/22 10:43:02;;;;;;;71.28;11.63;;;;;;;32.09;32.50;100229.05;1643163;85;21099;-69
2021/06/22 10:45:29;;;;;;;53.73;11.33;;;;;;;32.12;33.56;100229.60;1645364;85;21059;-70
2021/06/22 10:47:59;;;;;;;48.78;9.65;;;;;;;32.11;33.09;100236.30;1650080;85;21052;-70
2021/06/22 10:50:30;;;;;;;51.30;11.25;;;;;;;32.14;33.08;100234.70;1649177;85;21091;-71
2021/06/22 10:53:08;;;;;;;54.45;11.63;;;;;;;32.16;33.19;100242.77;1647962;87;21149;-70
2021/06/22 10:55:44;;;;;;;62.03;12.58;;;;;;;32.19;33.33;100243.33;1643458;85;21040;-70
2021/06/22 10:58:13;;;;;;;57.43;11.68;;;;;;;32.24;32.51;100235.95;1632962;85;21212;-71
2021/06/22 11:00:51;;;;;;;80.90;14.47;;;;;;;32.27;32.03;100240.48;1624088;86;21145;-71
2021/06/22 11:03:38;;;;;;;57.25;10.80;;;;;;;32.25;31.13;100245.05;1623509;85;21083;-71
2021/06/22 11:06:14;;;;;;;58.23;12.25;;;;;;;32.33;31.75;100237.45;1647922;85;21063;-70
2021/06/22 11:08:43;;;;;;;59.83;12.20;;;;;;;32.37;32.07;100241.72;1640647;85;21635;-70
2021/06/22 11:11:16;;;;;;;59.77;11.78;;;;;;;32.42;31.10;100237.73;1651584;85;21067;-71
2021/06/22 11:13:54;;;;;;;59.75;12.88;;;;;;;32.42;30.35;100238.55;1647987;86;21079;-71
2021/06/22 11:16:27;;;;;;;77.42;13.70;;;;;;;32.40;30.38;100238.73;1649949;85;21115;-71
2021/06/22 11:19:05;;;;;;;82.57;15.65;;;;;;;32.37;29.60;100238.96;1646306;85;21704;-70
2021/06/22 11:21:51;;;;;;;67.45;11.78;;;;;;;32.33;30.69;100237.45;1628562;86;21051;-70